Time;durP1;ratioP1;P1;durP2;ratioP2;P2;SDS_P1;SDS_P2;PMS_P1;PMS_P2;Temp;Humidity;BMP_temperature;BMP_pressure;BME280_temperature;BME280_humidity;BME280_pressure;Samples;Min_cycle;Max_cycle;Signal;HPM_P1;HPM_P2
2023/03/26 00:00:53;;;;;;;4.55;3.80;;;;;;;;;;5003677;28;20029;-76
2023/03/26 00:03:19;;;;;;;4.18;3.45;;;;;;;;;;5018587;28;20432;-76
2023/03/26 00:05:48;;;;;;;5.32;4.30;;;;;;;;;;5006314;28;20535;-76
2023/03/26 00:08:14;;;;;;;5.82;4.20;;;;;;;;;;5018610;28;20029;-76
2023/03/26 00:10:40;;;;;;;3.58;2.67;;;;;;;;;;5017646;28;20087;-75
2023/03/26 00:13:06;;;;;;;5.40;4.07;;;;;;;;;;5004573;28;20041;-76
2023/03/26 00:15:32;;;;;;;8.63;5.50;;;;;;;;;;5009390;28;20100;-75
2023/03/26 00:17:59;;;;;;;7.93;5.22;;;;;;;;;;5013994;28;20451;-77
2023/03/26 00:20:26;;;;;;;6.40;4.65;;;;;;;;;;5009316;28;20030;-77
2023/03/26 00:22:52;;;;;;;7.50;5.10;;;;;;;;;;5009351;28;20025;-75
2023/03/26 00:25:19;;;;;;;11.15;8.00;;;;;;;;;;5017622;28;20389;-75
2023/03/26 00:27:44;;;;;;;6.60;5.70;;;;;;;;;;5015392;28;20025;-75
2023/03/26 00:30:10;;;;;;;7.88;4.80;;;;;;;;;;5014854;28;20096;-76
2023/03/26 00:32:35;;;;;;;10.40;7.60;;;;;;;;;;5003503;28;20034;-75
2023/03/26 00:35:02;;;;;;;9.50;8.15;;;;;;;;;;5017104;28;20029;-75
2023/03/26 00:37:27;;;;;;;9.63;8.07;;;;;;;;;;5016250;28;20030;-76
2023/03/26 00:39:53;;;;;;;6.15;5.00;;;;;;;;;;5012471;28;20040;-76
2023/03/26 00:42:19;;;;;;;7.20;6.07;;;;;;;;;;5017397;28;20034;-75
2023/03/26 00:44:44;;;;;;;5.55;3.95;;;;;;;;;;5010771;28;20386;-76
2023/03/26 00:47:10;;;;;;;7.22;5.38;;;;;;;;;;5010374;28;20273;-76
2023/03/26 00:49:35;;;;;;;8.55;7.13;;;;;;;;;;5009800;28;20714;-76
2023/03/26 00:52:02;;;;;;;5.32;4.45;;;;;;;;;;5010036;28;20040;-75
2023/03/26 00:54:27;;;;;;;4.53;3.58;;;;;;;;;;5016294;28;20029;-76
2023/03/26 00:56:54;;;;;;;5.15;4.50;;;;;;;;;;5015360;28;20425;-77
2023/03/26 00:59:22;;;;;;;4.55;4.15;;;;;;;;;;5010948;28;20235;-75
2023/03/26 01:01:48;;;;;;;3.70;3.40;;;;;;;;;;5003599;28;20092;-75
2023/03/26 01:04:19;;;;;;;3.80;3.50;;;;;;;;;;5007111;28;20160;-75
2023/03/26 01:06:45;;;;;;;4.40;4.00;;;;;;;;;;5006991;28;20460;-75
2023/03/26 01:09:15;;;;;;;4.63;3.30;;;;;;;;;;5016760;28;20033;-76
2023/03/26 01:11:40;;;;;;;4.68;4.28;;;;;;;;;;5014575;28;20022;-76
2023/03/26 01:14:09;;;;;;;4.53;3.50;;;;;;;;;;5025573;28;20364;-76
2023/03/26 01:16:40;;;;;;;5.85;5.00;;;;;;;;;;5005595;28;20102;-75
2023/03/26 01:19:09;;;;;;;8.60;6.72;;;;;;;;;;5015362;28;20062;-75
2023/03/26 01:21:34;;;;;;;8.02;5.05;;;;;;;;;;5001080;28;20123;-75
2023/03/26 01:24:04;;;;;;;5.22;4.65;;;;;;;;;;5010092;28;20065;-74
2023/03/26 01:26:41;;;;;;;5.97;4.90;;;;;;;;;;5016544;28;20456;-74
2023/03/26 01:29:09;;;;;;;4.78;4.30;;;;;;;;;;5005960;28;20102;-76
2023/03/26 01:31:50;;;;;;;9.10;7.85;;;;;;;;;;5014702;28;20502;-75
2023/03/26 01:34:22;;;;;;;9.68;7.53;;;;;;;;;;5007848;28;20021;-75
2023/03/26 01:36:52;;;;;;;7.63;6.32;;;;;;;;;;5007690;28;20026;-77
2023/03/26 01:39:30;;;;;;;7.00;6.22;;;;;;;;;;5006593;28;20456;-75
2023/03/26 01:41:57;;;;;;;8.85;7.13;;;;;;;;;;5017174;28;20786;-76
2023/03/26 01:44:22;;;;;;;8.75;7.20;;;;;;;;;;5011871;28;20057;-77
2023/03/26 01:46:48;;;;;;;6.55;5.95;;;;;;;;;;5007642;28;20080;-77
2023/03/26 01:49:14;;;;;;;13.25;10.27;;;;;;;;;;5014381;28;20067;-75
2023/03/26 01:51:40;;;;;;;12.60;10.05;;;;;;;;;;5000979;28;20029;-76
2023/03/26 01:54:08;;;;;;;11.35;10.15;;;;;;;;;;5005366;28;20046;-78
2023/03/26 01:56:52;;;;;;;11.52;9.60;;;;;;;;;;5012159;28;20413;-74
2023/03/26 01:59:37;;;;;;;16.70;12.25;;;;;;;;;;5009316;28;20117;-79
2023/03/26 02:02:03;;;;;;;24.13;18.20;;;;;;;;;;5022295;28;20053;-76
2023/03/26 02:04:51;;;;;;;33.38;18.30;;;;;;;;;;5014305;28;20040;-77
2023/03/26 02:07:33;;;;;;;30.73;21.38;;;;;;;;;;5014457;28;20131;-76
2023/03/26 02:10:01;;;;;;;18.63;15.98;;;;;;;;;;5008430;28;20808;-75
2023/03/26 02:12:26;;;;;;;14.30;12.90;;;;;;;;;;5011441;28;20029;-77
2023/03/26 02:14:51;;;;;;;13.60;12.15;;;;;;;;;;5009708;28;20030;-75
2023/03/26 02:17:18;;;;;;;16.08;12.40;;;;;;;;;;5010234;28;20041;-76
2023/03/26 02:19:43;;;;;;;12.50;10.77;;;;;;;;;;5008505;28;20326;-74
2023/03/26 02:22:10;;;;;;;11.43;10.40;;;;;;;;;;5013037;28;20090;-77
2023/03/26 02:24:37;;;;;;;12.45;11.43;;;;;;;;;;5010965;28;20025;-75
2023/03/26 02:27:06;;;;;;;11.75;10.75;;;;;;;;;;5011349;28;20017;-75
2023/03/26 02:29:36;;;;;;;14.10;12.67;;;;;;;;;;5016611;28;21235;-75
2023/03/26 02:32:03;;;;;;;15.43;13.82;;;;;;;;;;5019368;28;20449;-76
2023/03/26 02:34:29;;;;;;;15.52;14.02;;;;;;;;;;5015929;28;20029;-73
2023/03/26 02:36:56;;;;;;;19.38;17.23;;;;;;;;;;5011180;28;20022;-73
2023/03/26 02:39:21;;;;;;;30.75;22.40;;;;;;;;;;5012411;28;20022;-76
2023/03/26 02:41:46;;;;;;;24.05;20.35;;;;;;;;;;5010055;28;20029;-72
2023/03/26 02:44:11;;;;;;;24.67;19.73;;;;;;;;;;5015604;28;20033;-77
2023/03/26 02:46:37;;;;;;;12.32;11.13;;;;;;;;;;5007344;28;20050;-75
2023/03/26 02:49:02;;;;;;;18.38;15.07;;;;;;;;;;5031162;28;20068;-74
2023/03/26 02:51:27;;;;;;;17.40;15.70;;;;;;;;;;5017639;28;20136;-75
2023/03/26 02:53:53;;;;;;;16.45;14.80;;;;;;;;;;5018610;28;20121;-75
2023/03/26 02:56:19;;;;;;;17.50;15.68;;;;;;;;;;5004544;28;20102;-75
2023/03/26 02:58:45;;;;;;;16.60;14.90;;;;;;;;;;5020128;28;20048;-75
2023/03/26 03:01:11;;;;;;;21.67;19.40;;;;;;;;;;5008707;28;20033;-75
2023/03/26 03:03:37;;;;;;;32.88;26.45;;;;;;;;;;5016107;28;20025;-75
2023/03/26 03:06:02;;;;;;;29.08;24.35;;;;;;;;;;5016907;28;20156;-76
2023/03/26 03:08:28;;;;;;;26.48;23.60;;;;;;;;;;5018552;28;20029;-75
2023/03/26 03:10:57;;;;;;;25.10;22.55;;;;;;;;;;5016911;28;20349;-75
2023/03/26 03:13:22;;;;;;;22.67;20.40;;;;;;;;;;5017356;28;20030;-75
2023/03/26 03:15:48;;;;;;;22.92;20.50;;;;;;;;;;5023389;28;20492;-75
2023/03/26 03:18:13;;;;;;;24.00;21.48;;;;;;;;;;5015951;28;20044;-74
2023/03/26 03:20:38;;;;;;;26.33;22.48;;;;;;;;;;5016271;28;20096;-75
2023/03/26 03:23:04;;;;;;;21.55;19.35;;;;;;;;;;5015032;28;20026;-75
2023/03/26 03:25:29;;;;;;;21.05;18.77;;;;;;;;;;5014866;28;20049;-74
2023/03/26 03:27:54;;;;;;;18.42;16.73;;;;;;;;;;5011279;28;20030;-74
2023/03/26 03:30:19;;;;;;;18.58;16.80;;;;;;;;;;5009141;28;20044;-76
2023/03/26 03:32:45;;;;;;;17.02;15.43;;;;;;;;;;5014445;28;20037;-80
2023/03/26 03:35:10;;;;;;;16.35;14.70;;;;;;;;;;5017885;28;20131;-76
2023/03/26 03:37:36;;;;;;;14.90;13.43;;;;;;;;;;5004991;28;20447;-76
2023/03/26 03:40:01;;;;;;;15.52;14.13;;;;;;;;;;5013792;28;20027;-75
2023/03/26 03:42:26;;;;;;;20.42;18.42;;;;;;;;;;5017454;28;20042;-75
2023/03/26 03:44:52;;;;;;;18.40;16.35;;;;;;;;;;5016466;28;20041;-74
2023/03/26 03:47:17;;;;;;;20.35;18.25;;;;;;;;;;5018301;28;20655;-75
2023/03/26 03:49:42;;;;;;;17.38;15.60;;;;;;;;;;5011304;28;20091;-74
2023/03/26 03:52:08;;;;;;;14.50;13.10;;;;;;;;;;5009747;28;20041;-76
2023/03/26 03:54:33;;;;;;;18.52;16.63;;;;;;;;;;5015121;28;20029;-76
2023/03/26 03:57:00;;;;;;;19.80;17.73;;;;;;;;;;5016400;28;20095;-75
2023/03/26 03:59:26;;;;;;;19.00;17.20;;;;;;;;;;5005050;28;20051;-75
2023/03/26 04:01:51;;;;;;;20.52;18.42;;;;;;;;;;5011807;28;20073;-76
2023/03/26 04:04:16;;;;;;;20.42;18.42;;;;;;;;;;5017226;28;20045;-75
2023/03/26 04:06:42;;;;;;;19.08;17.10;;;;;;;;;;5016679;28;20497;-76
2023/03/26 04:09:09;;;;;;;15.00;13.50;;;;;;;;;;5017137;28;20029;-74
2023/03/26 04:11:34;;;;;;;14.52;13.13;;;;;;;;;;5018018;28;20044;-75
2023/03/26 04:14:00;;;;;;;13.38;12.18;;;;;;;;;;5014372;28;20033;-76
2023/03/26 04:16:25;;;;;;;13.20;12.00;;;;;;;;;;5014423;28;20061;-75
2023/03/26 04:18:50;;;;;;;22.52;20.13;;;;;;;;;;5016586;28;20033;-75
2023/03/26 04:21:16;;;;;;;21.63;19.35;;;;;;;;;;5005936;28;20100;-76
2023/03/26 04:23:41;;;;;;;15.38;13.77;;;;;;;;;;5015774;28;20424;-75
2023/03/26 04:26:09;;;;;;;10.55;9.65;;;;;;;;;;5016756;28;20420;-76
2023/03/26 04:28:34;;;;;;;12.48;11.35;;;;;;;;;;5017562;28;20436;-75
2023/03/26 04:31:02;;;;;;;16.10;14.50;;;;;;;;;;5016062;28;20025;-75
2023/03/26 04:33:29;;;;;;;14.10;12.80;;;;;;;;;;5031260;28;20025;-77
2023/03/26 04:35:55;;;;;;;13.43;12.25;;;;;;;;;;5014193;28;20061;-77
2023/03/26 04:38:20;;;;;;;14.95;13.45;;;;;;;;;;5015519;28;20096;-76
2023/03/26 04:40:46;;;;;;;18.35;16.42;;;;;;;;;;5000875;28;20037;-76
2023/03/26 04:43:16;;;;;;;12.85;11.52;;;;;;;;;;5014805;28;20043;-75
2023/03/26 04:45:42;;;;;;;12.52;11.32;;;;;;;;;;5013329;28;20294;-76
2023/03/26 04:48:13;;;;;;;13.18;11.98;;;;;;;;;;5010968;28;20092;-77
2023/03/26 04:50:39;;;;;;;12.57;11.38;;;;;;;;;;5012408;28;22024;-77
2023/03/26 04:53:04;;;;;;;11.85;10.75;;;;;;;;;;4997695;28;20022;-75
2023/03/26 04:55:42;;;;;;;12.75;11.65;;;;;;;;;;4993251;28;20417;-77
2023/03/26 04:58:08;;;;;;;12.35;11.10;;;;;;;;;;4993552;28;20445;-77
2023/03/26 05:00:33;;;;;;;12.55;11.38;;;;;;;;;;4991644;28;20032;-77
2023/03/26 05:03:00;;;;;;;12.25;11.15;;;;;;;;;;4993796;28;20095;-76
2023/03/26 05:05:26;;;;;;;12.93;11.73;;;;;;;;;;4993494;28;20453;-75
2023/03/26 05:07:51;;;;;;;13.00;11.70;;;;;;;;;;4993301;28;20036;-77
2023/03/26 05:10:19;;;;;;;13.20;11.70;;;;;;;;;;4995882;28;20025;-77
2023/03/26 05:12:44;;;;;;;11.52;10.50;;;;;;;;;;4995974;28;20025;-76
2023/03/26 05:15:10;;;;;;;12.07;11.00;;;;;;;;;;4992048;28;20048;-76
2023/03/26 05:17:40;;;;;;;14.82;13.10;;;;;;;;;;4993009;28;20041;-75
2023/03/26 05:20:06;;;;;;;14.18;12.88;;;;;;;;;;4990889;28;20041;-74
2023/03/26 05:22:32;;;;;;;13.27;12.15;;;;;;;;;;4997455;28;20028;-75
2023/03/26 05:24:57;;;;;;;12.90;11.60;;;;;;;;;;4991848;28;20034;-77
2023/03/26 05:27:22;;;;;;;36.80;27.05;;;;;;;;;;4991780;28;20157;-75
2023/03/26 05:29:48;;;;;;;59.30;43.72;;;;;;;;;;4995794;28;20021;-75
2023/03/26 05:32:13;;;;;;;133.60;84.22;;;;;;;;;;4990819;28;20044;-77
2023/03/26 05:34:39;;;;;;;222.15;142.35;;;;;;;;;;4996431;28;20036;-75
2023/03/26 05:37:05;;;;;;;139.90;92.38;;;;;;;;;;4988624;28;20036;-75
2023/03/26 05:39:31;;;;;;;63.20;44.13;;;;;;;;;;4992196;28;20036;-75
2023/03/26 05:41:56;;;;;;;19.88;17.58;;;;;;;;;;4995016;28;20037;-76
2023/03/26 05:44:21;;;;;;;18.35;15.82;;;;;;;;;;4991870;28;20041;-75
2023/03/26 05:46:47;;;;;;;16.92;15.43;;;;;;;;;;5000423;28;20536;-76
2023/03/26 05:49:12;;;;;;;16.27;14.77;;;;;;;;;;5001182;28;20556;-76
2023/03/26 05:51:37;;;;;;;16.23;14.63;;;;;;;;;;5003382;28;20339;-75
2023/03/26 05:54:03;;;;;;;17.55;15.70;;;;;;;;;;4996458;28;20037;-75
2023/03/26 05:56:28;;;;;;;23.40;21.02;;;;;;;;;;5006796;28;20030;-77
2023/03/26 05:58:55;;;;;;;23.98;21.45;;;;;;;;;;5012756;28;20112;-75
2023/03/26 06:01:21;;;;;;;24.58;21.55;;;;;;;;;;5014344;28;20391;-75
2023/03/26 06:03:47;;;;;;;34.08;30.13;;;;;;;;;;5010831;28;20030;-75
2023/03/26 06:06:14;;;;;;;36.65;29.48;;;;;;;;;;5005367;28;20040;-77
2023/03/26 06:08:49;;;;;;;19.65;17.75;;;;;;;;;;5028741;28;20036;-75
2023/03/26 06:11:16;;;;;;;17.08;15.27;;;;;;;;;;5014745;28;20040;-75
2023/03/26 06:13:42;;;;;;;19.75;17.67;;;;;;;;;;4999324;28;20103;-75
2023/03/26 06:16:08;;;;;;;25.17;22.60;;;;;;;;;;5010795;28;20037;-75
2023/03/26 06:18:33;;;;;;;17.58;15.85;;;;;;;;;;5013941;28;20025;-75
2023/03/26 06:20:59;;;;;;;18.45;16.55;;;;;;;;;;5006469;28;20090;-76
2023/03/26 06:23:24;;;;;;;20.20;18.30;;;;;;;;;;5011694;28;20028;-76
2023/03/26 06:25:49;;;;;;;16.33;14.63;;;;;;;;;;5016910;28;20406;-77
2023/03/26 06:28:15;;;;;;;11.07;10.07;;;;;;;;;;5012490;28;20038;-80
2023/03/26 06:30:40;;;;;;;15.52;14.13;;;;;;;;;;5014913;28;20080;-78
2023/03/26 06:33:06;;;;;;;17.67;15.88;;;;;;;;;;5007039;28;20368;-75
2023/03/26 06:35:31;;;;;;;17.40;15.75;;;;;;;;;;5004256;28;20033;-74
2023/03/26 06:37:57;;;;;;;10.57;9.60;;;;;;;;;;4995691;28;20026;-75
2023/03/26 06:40:22;;;;;;;11.38;10.27;;;;;;;;;;5006922;28;20356;-78
2023/03/26 06:42:48;;;;;;;11.15;10.05;;;;;;;;;;5009861;28;20029;-78
2023/03/26 06:45:13;;;;;;;21.45;19.45;;;;;;;;;;5017649;28;20057;-79
2023/03/26 06:47:38;;;;;;;15.63;14.00;;;;;;;;;;5014077;28;20335;-78
2023/03/26 06:50:04;;;;;;;14.00;12.57;;;;;;;;;;5013436;28;20481;-74
2023/03/26 06:52:30;;;;;;;10.45;9.45;;;;;;;;;;5004633;28;20060;-73
2023/03/26 06:54:55;;;;;;;11.30;10.30;;;;;;;;;;5009395;28;20379;-74
2023/03/26 06:57:21;;;;;;;13.23;11.93;;;;;;;;;;5014973;28;20037;-75
2023/03/26 06:59:46;;;;;;;9.05;8.25;;;;;;;;;;5007119;28;20037;-75
2023/03/26 07:02:14;;;;;;;7.22;6.53;;;;;;;;;;5022160;28;20029;-76
2023/03/26 07:04:40;;;;;;;7.93;7.22;;;;;;;;;;5012196;28;20052;-74
2023/03/26 07:07:05;;;;;;;7.15;6.45;;;;;;;;;;5015494;28;20038;-74
2023/03/26 07:09:31;;;;;;;7.68;6.95;;;;;;;;;;5016726;28;20082;-75
2023/03/26 07:11:56;;;;;;;7.05;6.55;;;;;;;;;;5017559;28;20305;-77
2023/03/26 07:14:23;;;;;;;6.80;6.22;;;;;;;;;;5015581;28;20034;-73
2023/03/26 07:16:49;;;;;;;9.05;8.25;;;;;;;;;;5013210;28;20128;-74
2023/03/26 07:19:14;;;;;;;7.07;6.45;;;;;;;;;;5016948;28;20463;-74
2023/03/26 07:21:40;;;;;;;6.78;6.28;;;;;;;;;;5018433;28;20029;-73
2023/03/26 07:24:08;;;;;;;7.00;6.40;;;;;;;;;;5008843;28;20083;-76
2023/03/26 07:26:36;;;;;;;6.53;5.80;;;;;;;;;;5012085;28;20474;-78
2023/03/26 07:29:07;;;;;;;7.38;6.72;;;;;;;;;;5016532;28;20037;-76
2023/03/26 07:31:40;;;;;;;7.13;6.43;;;;;;;;;;5018731;28;20551;-75
2023/03/26 07:34:21;;;;;;;8.82;6.88;;;;;;;;;;5013485;28;20048;-76
2023/03/26 07:36:46;;;;;;;5.93;5.45;;;;;;;;;;5007443;28;20038;-75
2023/03/26 07:39:18;;;;;;;6.75;6.07;;;;;;;;;;5016663;28;20177;-77
2023/03/26 07:41:43;;;;;;;6.25;5.65;;;;;;;;;;5011463;28;20021;-75
2023/03/26 07:44:20;;;;;;;5.57;5.07;;;;;;;;;;5005273;28;20060;-77
2023/03/26 07:46:46;;;;;;;6.97;6.28;;;;;;;;;;5011834;28;20060;-77
2023/03/26 07:49:12;;;;;;;4.32;3.92;;;;;;;;;;5011057;28;20064;-76
2023/03/26 07:51:37;;;;;;;3.60;3.30;;;;;;;;;;5008335;28;20030;-78
2023/03/26 07:54:03;;;;;;;6.13;5.30;;;;;;;;;;5006975;28;20037;-78
2023/03/26 07:56:41;;;;;;;4.45;4.05;;;;;;;;;;5015530;28;20079;-77
2023/03/26 07:59:26;;;;;;;7.55;6.97;;;;;;;;;;5016006;28;20033;-75
2023/03/26 08:02:10;;;;;;;5.22;4.72;;;;;;;;;;5014261;28;20436;-75
2023/03/26 08:04:45;;;;;;;11.40;9.02;;;;;;;;;;5005583;28;20030;-76
2023/03/26 08:07:16;;;;;;;3.03;2.60;;;;;;;;;;5002755;28;20028;-76
2023/03/26 08:09:57;;;;;;;10.20;7.80;;;;;;;;;;5005331;28;20036;-75
2023/03/26 08:12:25;;;;;;;10.95;8.93;;;;;;;;;;5001637;28;20154;-75
2023/03/26 08:15:09;;;;;;;9.63;7.13;;;;;;;;;;4996484;28;20049;-75
2023/03/26 08:17:36;;;;;;;16.15;9.55;;;;;;;;;;4992293;28;20084;-74
2023/03/26 08:20:21;;;;;;;10.75;7.72;;;;;;;;;;4992568;28;20060;-75
2023/03/26 08:22:50;;;;;;;9.00;6.55;;;;;;;;;;4995319;28;20497;-76
2023/03/26 08:25:26;;;;;;;7.70;5.60;;;;;;;;;;4998380;28;20353;-74
2023/03/26 08:28:10;;;;;;;11.07;8.25;;;;;;;;;;4995264;28;20029;-73
2023/03/26 08:30:36;;;;;;;14.88;10.35;;;;;;;;;;5004257;28;20473;-75
2023/03/26 08:33:12;;;;;;;9.45;7.30;;;;;;;;;;5015504;28;20035;-74
2023/03/26 08:35:41;;;;;;;17.10;10.68;;;;;;;;;;5015346;28;20033;-78
2023/03/26 08:38:10;;;;;;;16.05;11.80;;;;;;;;;;5005899;28;20037;-76
2023/03/26 08:40:54;;;;;;;12.57;8.82;;;;;;;;;;5014444;28;20088;-76
2023/03/26 08:43:20;;;;;;;6.47;4.90;;;;;;;;;;5009955;28;20051;-73
2023/03/26 08:45:46;;;;;;;7.45;5.78;;;;;;;;;;5001894;28;20060;-74
2023/03/26 08:48:28;;;;;;;7.65;5.97;;;;;;;;;;5003000;28;20048;-74
2023/03/26 08:51:18;;;;;;;5.10;4.45;;;;;;;;;;5015241;28;20022;-77
2023/03/26 08:53:46;;;;;;;4.30;3.80;;;;;;;;;;5003431;28;20157;-77
2023/03/26 08:56:30;;;;;;;5.10;3.60;;;;;;;;;;4994379;28;20037;-75
2023/03/26 08:59:14;;;;;;;6.40;4.60;;;;;;;;;;5005812;28;20030;-75
2023/03/26 09:01:54;;;;;;;6.28;3.53;;;;;;;;;;5005746;28;20088;-77
2023/03/26 09:04:26;;;;;;;3.65;3.20;;;;;;;;;;5013819;28;20040;-73
2023/03/26 09:06:58;;;;;;;5.25;4.10;;;;;;;;;;5015538;28;20075;-78
2023/03/26 09:09:26;;;;;;;5.72;4.68;;;;;;;;;;5012468;28;20034;-74
2023/03/26 09:12:00;;;;;;;3.47;3.03;;;;;;;;;;5001383;28;20093;-76
2023/03/26 09:14:31;;;;;;;5.05;3.10;;;;;;;;;;5002391;28;20030;-75
2023/03/26 09:17:00;;;;;;;5.65;3.92;;;;;;;;;;5001789;28;20049;-74
2023/03/26 09:19:25;;;;;;;3.47;3.17;;;;;;;;;;5003234;28;20364;-74
2023/03/26 09:21:50;;;;;;;2.40;2.20;;;;;;;;;;5002869;28;20067;-71
2023/03/26 09:24:16;;;;;;;3.20;2.90;;;;;;;;;;5012817;28;20033;-73
2023/03/26 09:26:59;;;;;;;3.95;3.45;;;;;;;;;;5014452;28;20030;-76
2023/03/26 09:29:25;;;;;;;3.08;2.78;;;;;;;;;;5001034;28;20029;-73
2023/03/26 09:32:01;;;;;;;3.92;2.83;;;;;;;;;;5017953;28;20114;-76
2023/03/26 09:34:29;;;;;;;3.30;2.72;;;;;;;;;;5002962;28;20372;-74
2023/03/26 09:37:04;;;;;;;2.53;1.75;;;;;;;;;;4994516;28;20056;-74
2023/03/26 09:39:33;;;;;;;1.65;1.55;;;;;;;;;;4993316;28;20095;-75
2023/03/26 09:42:07;;;;;;;4.60;3.77;;;;;;;;;;4993159;28;20100;-73
2023/03/26 09:44:51;;;;;;;3.35;2.47;;;;;;;;;;5001855;28;20277;-74
2023/03/26 09:47:35;;;;;;;2.53;1.92;;;;;;;;;;5002181;28;20049;-74
2023/03/26 09:50:26;;;;;;;7.07;4.80;;;;;;;;;;5002101;28;20078;-74
2023/03/26 09:52:57;;;;;;;3.20;2.05;;;;;;;;;;4998958;28;20079;-76
2023/03/26 09:55:32;;;;;;;1.45;0.95;;;;;;;;;;4955851;28;20049;-75
2023/03/26 09:58:18;;;;;;;9.73;6.25;;;;;;;;;;4990186;28;20029;-74
2023/03/26 10:00:44;;;;;;;3.85;3.13;;;;;;;;;;4990954;28;20029;-73
2023/03/26 10:03:17;;;;;;;2.78;2.20;;;;;;;;;;4991173;28;20451;-74
2023/03/26 10:05:49;;;;;;;2.78;2.30;;;;;;;;;;4986794;28;20025;-74
2023/03/26 10:08:29;;;;;;;3.03;2.15;;;;;;;;;;4992103;28;20026;-75
2023/03/26 10:10:56;;;;;;;2.72;2.17;;;;;;;;;;4990531;28;20017;-74
2023/03/26 10:13:24;;;;;;;1.20;1.20;;;;;;;;;;4999622;28;20018;-71
2023/03/26 10:15:49;;;;;;;1.05;1.02;;;;;;;;;;4999142;28;20059;-73
2023/03/26 10:18:33;;;;;;;5.65;3.95;;;;;;;;;;4998548;28;20022;-73
2023/03/26 10:21:16;;;;;;;2.22;1.30;;;;;;;;;;5008454;28;20057;-73
2023/03/26 10:23:45;;;;;;;2.22;1.40;;;;;;;;;;4994077;28;20356;-72
2023/03/26 10:26:29;;;;;;;4.32;3.53;;;;;;;;;;5002267;28;20039;-75
2023/03/26 10:29:10;;;;;;;2.15;1.58;;;;;;;;;;4998970;28;20080;-75
2023/03/26 10:31:54;;;;;;;1.83;1.58;;;;;;;;;;5004862;28;20030;-77
2023/03/26 10:34:29;;;;;;;6.10;4.97;;;;;;;;;;5002580;28;20037;-74
2023/03/26 10:37:01;;;;;;;5.82;5.32;;;;;;;;;;5009828;28;20437;-77
2023/03/26 10:39:26;;;;;;;23.48;15.45;;;;;;;;;;4999935;28;20052;-78
2023/03/26 10:41:54;;;;;;;16.52;9.30;;;;;;;;;;5012294;28;20084;-73
2023/03/26 10:44:32;;;;;;;5.43;4.93;;;;;;;;;;5002261;28;20061;-75
2023/03/26 10:47:13;;;;;;;12.63;8.68;;;;;;;;;;5016302;28;20046;-76
2023/03/26 10:49:38;;;;;;;7.25;4.75;;;;;;;;;;5016712;28;20037;-75
2023/03/26 10:52:06;;;;;;;2.55;1.70;;;;;;;;;;5014634;28;20033;-74
2023/03/26 10:54:45;;;;;;;1.90;1.80;;;;;;;;;;5015980;28;20435;-76
2023/03/26 10:57:23;;;;;;;1.65;1.55;;;;;;;;;;5019060;28;20340;-73
2023/03/26 10:59:48;;;;;;;1.88;1.77;;;;;;;;;;5017057;28;20356;-75
2023/03/26 11:02:25;;;;;;;1.85;1.10;;;;;;;;;;5017853;28;20315;-75
2023/03/26 11:05:00;;;;;;;1.27;1.13;;;;;;;;;;5017819;28;20033;-73
2023/03/26 11:07:34;;;;;;;2.58;2.38;;;;;;;;;;5018734;28;20100;-73
2023/03/26 11:10:03;;;;;;;3.53;2.30;;;;;;;;;;5017463;28;20356;-75
2023/03/26 11:12:51;;;;;;;3.78;3.35;;;;;;;;;;5016645;28;20029;-74
2023/03/26 11:15:37;;;;;;;1.58;1.48;;;;;;;;;;5020312;28;20033;-73
2023/03/26 11:18:02;;;;;;;2.45;2.13;;;;;;;;;;5016083;28;20480;-75
2023/03/26 11:20:37;;;;;;;0.93;0.90;;;;;;;;;;5017358;28;20026;-73
2023/03/26 11:23:18;;;;;;;2.67;2.15;;;;;;;;;;5016933;28;20416;-75
2023/03/26 11:25:44;;;;;;;0.90;0.90;;;;;;;;;;5020746;28;20045;-73
2023/03/26 11:28:16;;;;;;;3.28;1.50;;;;;;;;;;5014929;28;20080;-73
2023/03/26 11:30:49;;;;;;;1.02;0.93;;;;;;;;;;5017006;28;20017;-77
2023/03/26 11:33:21;;;;;;;4.50;3.05;;;;;;;;;;5006480;28;20134;-73
2023/03/26 11:35:48;;;;;;;2.15;1.90;;;;;;;;;;5015220;28;20037;-74
2023/03/26 11:38:27;;;;;;;1.60;1.50;;;;;;;;;;5017150;28;20408;-75
2023/03/26 11:40:55;;;;;;;1.25;1.10;;;;;;;;;;5017308;28;20730;-74
2023/03/26 11:43:23;;;;;;;2.63;2.08;;;;;;;;;;5004269;28;20026;-72
2023/03/26 11:45:50;;;;;;;1.73;1.23;;;;;;;;;;4999414;28;20149;-73
2023/03/26 11:48:30;;;;;;;2.33;1.95;;;;;;;;;;5000378;28;20025;-73
2023/03/26 11:51:06;;;;;;;1.38;1.02;;;;;;;;;;4997525;28;20036;-73
2023/03/26 11:53:33;;;;;;;1.27;1.00;;;;;;;;;;4999108;28;20030;-75
2023/03/26 11:56:04;;;;;;;2.10;1.65;;;;;;;;;;4997128;28;20044;-74
2023/03/26 11:58:30;;;;;;;1.50;1.40;;;;;;;;;;4999520;28;20502;-73
2023/03/26 12:00:55;;;;;;;0.95;0.95;;;;;;;;;;5000704;28;20030;-72
2023/03/26 12:03:20;;;;;;;2.63;1.50;;;;;;;;;;5002688;28;20468;-73
2023/03/26 12:05:48;;;;;;;0.88;0.88;;;;;;;;;;5017818;28;20034;-76
2023/03/26 12:08:29;;;;;;;1.45;1.00;;;;;;;;;;5014938;28;20045;-75
2023/03/26 12:11:00;;;;;;;3.28;2.30;;;;;;;;;;5017517;28;20072;-75
2023/03/26 12:13:25;;;;;;;2.40;2.20;;;;;;;;;;5016746;28;20468;-74
2023/03/26 12:15:56;;;;;;;2.88;2.53;;;;;;;;;;5029147;28;20044;-75
2023/03/26 12:18:26;;;;;;;4.82;3.83;;;;;;;;;;5005571;28;20025;-76
2023/03/26 12:21:03;;;;;;;4.35;2.35;;;;;;;;;;5002932;28;20017;-74
2023/03/26 12:23:37;;;;;;;3.08;2.33;;;;;;;;;;5004254;28;20033;-76
2023/03/26 12:26:13;;;;;;;4.28;3.50;;;;;;;;;;5013490;28;20026;-74
2023/03/26 12:28:42;;;;;;;2.53;2.33;;;;;;;;;;4997322;28;20037;-77
2023/03/26 12:31:10;;;;;;;3.10;2.80;;;;;;;;;;4998639;28;20057;-75
2023/03/26 12:33:37;;;;;;;9.38;7.07;;;;;;;;;;5010656;28;20457;-77
2023/03/26 12:36:18;;;;;;;3.72;2.83;;;;;;;;;;4995512;28;20034;-74
2023/03/26 12:38:44;;;;;;;2.10;1.90;;;;;;;;;;5007054;28;20078;-75
2023/03/26 12:41:12;;;;;;;2.13;1.90;;;;;;;;;;5015270;28;20421;-77
2023/03/26 12:43:48;;;;;;;1.50;1.40;;;;;;;;;;5012963;28;20433;-73
2023/03/26 12:46:33;;;;;;;2.63;1.88;;;;;;;;;;5010704;28;20049;-75
2023/03/26 12:48:59;;;;;;;2.15;1.00;;;;;;;;;;5013047;28;20021;-74
2023/03/26 12:51:40;;;;;;;3.38;2.90;;;;;;;;;;5017410;28;20041;-77
2023/03/26 12:54:14;;;;;;;3.38;1.75;;;;;;;;;;5014826;28;20034;-75
2023/03/26 12:57:06;;;;;;;4.00;2.75;;;;;;;;;;5013437;28;20041;-75
2023/03/26 12:59:38;;;;;;;2.17;1.35;;;;;;;;;;4996900;28;20046;-74
2023/03/26 13:02:12;;;;;;;1.23;1.10;;;;;;;;;;5004641;28;20033;-75
2023/03/26 13:04:47;;;;;;;1.55;1.33;;;;;;;;;;5002545;28;20064;-75
2023/03/26 13:07:23;;;;;;;2.42;1.65;;;;;;;;;;5000200;28;20120;-76
2023/03/26 13:10:04;;;;;;;4.10;1.60;;;;;;;;;;4995532;28;20026;-75
2023/03/26 13:12:29;;;;;;;1.10;1.00;;;;;;;;;;4996282;28;20087;-76
2023/03/26 13:15:06;;;;;;;1.73;1.50;;;;;;;;;;4997858;28;20034;-73
2023/03/26 13:17:35;;;;;;;2.85;2.55;;;;;;;;;;4995835;28;20136;-73
2023/03/26 13:20:10;;;;;;;4.37;3.30;;;;;;;;;;4998045;28;20037;-76
2023/03/26 13:22:45;;;;;;;1.15;1.13;;;;;;;;;;4998319;28;20326;-78
2023/03/26 13:25:29;;;;;;;2.22;1.33;;;;;;;;;;4999966;28;20037;-73
2023/03/26 13:28:13;;;;;;;2.35;1.50;;;;;;;;;;4997611;28;20490;-73
2023/03/26 13:30:38;;;;;;;2.97;1.60;;;;;;;;;;4996366;28;20032;-73
2023/03/26 13:33:25;;;;;;;1.50;1.40;;;;;;;;;;4998118;28;20122;-74
2023/03/26 13:35:58;;;;;;;4.05;3.25;;;;;;;;;;4999107;28;20274;-73
2023/03/26 13:38:46;;;;;;;4.38;3.05;;;;;;;;;;4997161;28;20568;-74
2023/03/26 13:41:11;;;;;;;6.70;3.73;;;;;;;;;;4994025;28;20041;-72
2023/03/26 13:43:45;;;;;;;6.13;4.35;;;;;;;;;;4998575;28;20040;-73
2023/03/26 13:46:15;;;;;;;2.85;2.25;;;;;;;;;;4998978;28;20049;-72
2023/03/26 13:48:47;;;;;;;4.10;3.70;;;;;;;;;;4997668;28;20084;-72
2023/03/26 13:51:17;;;;;;;3.72;3.28;;;;;;;;;;4999257;28;20111;-73
2023/03/26 13:53:42;;;;;;;;;;;;;;;;;;5000795;28;20033;-75
2023/03/26 13:56:10;;;;;;;4.15;3.00;;;;;;;;;;5000017;28;19927;-74
2023/03/26 13:58:43;;;;;;;8.23;6.38;;;;;;;;;;5002629;28;20448;-78
2023/03/26 14:01:11;;;;;;;3.72;2.90;;;;;;;;;;4999781;28;20036;-73
2023/03/26 14:03:48;;;;;;;4.05;3.65;;;;;;;;;;5001047;28;20029;-74
2023/03/26 14:06:27;;;;;;;2.95;2.13;;;;;;;;;;4997990;28;20017;-73
2023/03/26 14:08:56;;;;;;;3.30;2.40;;;;;;;;;;4998840;28;20091;-75
2023/03/26 14:11:30;;;;;;;1.40;1.00;;;;;;;;;;4999294;28;20032;-74
2023/03/26 14:13:56;;;;;;;13.80;12.50;;;;;;;;;;4998771;28;21201;-74
2023/03/26 14:16:25;;;;;;;2.70;2.47;;;;;;;;;;4998871;28;20038;-74
2023/03/26 14:18:55;;;;;;;4.15;3.40;;;;;;;;;;4997536;28;20025;-74
2023/03/26 14:21:26;;;;;;;1.83;1.70;;;;;;;;;;4998164;28;20026;-74
2023/03/26 14:24:07;;;;;;;3.53;3.22;;;;;;;;;;4991420;28;20034;-77
2023/03/26 14:26:42;;;;;;;5.38;4.88;;;;;;;;;;4990003;28;20034;-73
2023/03/26 14:29:27;;;;;;;4.85;3.17;;;;;;;;;;4987113;28;20040;-73
2023/03/26 14:31:56;;;;;;;1.15;1.10;;;;;;;;;;4991521;28;20046;-73
2023/03/26 14:34:48;;;;;;;1.80;0.88;;;;;;;;;;4991639;28;20105;-74
2023/03/26 14:37:25;;;;;;;0.60;0.60;;;;;;;;;;4990232;28;20037;-74
2023/03/26 14:40:00;;;;;;;2.42;2.08;;;;;;;;;;4988926;28;20030;-76
2023/03/26 14:42:28;;;;;;;2.75;2.55;;;;;;;;;;4990336;28;20627;-75
2023/03/26 14:44:59;;;;;;;1.10;0.83;;;;;;;;;;4994269;28;20575;-73
2023/03/26 14:47:24;;;;;;;2.50;2.30;;;;;;;;;;5006739;28;20062;-75
2023/03/26 14:50:10;;;;;;;1.13;1.10;;;;;;;;;;4998355;28;20018;-73